sensor_id;sensor_type;location;lat;lon;timestamp;temperature;humidity
36548;DHT22;22551;52.206;4.856;2023-03-19T00:01:59;10.70;99.90
36548;DHT22;22551;52.206;4.856;2023-03-19T00:07:01;10.70;99.90
36548;DHT22;22551;52.206;4.856;2023-03-19T00:12:05;10.70;99.90
36548;DHT22;22551;52.206;4.856;2023-03-19T00:17:08;10.70;99.90
36548;DHT22;22551;52.206;4.856;2023-03-19T00:22:11;10.70;99.90
36548;DHT22;22551;52.206;4.856;2023-03-19T00:27:14;10.70;99.90
36548;DHT22;22551;52.206;4.856;2023-03-19T00:32:17;10.70;99.90
36548;DHT22;22551;52.206;4.856;2023-03-19T00:37:19;10.70;99.90
36548;DHT22;22551;52.206;4.856;2023-03-19T00:42:25;10.70;99.90
36548;DHT22;22551;52.206;4.856;2023-03-19T00:47:27;10.70;99.90
36548;DHT22;22551;52.206;4.856;2023-03-19T00:52:30;10.70;99.90
36548;DHT22;22551;52.206;4.856;2023-03-19T00:57:33;10.70;99.90
36548;DHT22;22551;52.206;4.856;2023-03-19T01:02:36;10.60;99.90
36548;DHT22;22551;52.206;4.856;2023-03-19T01:07:38;10.60;99.90
36548;DHT22;22551;52.206;4.856;2023-03-19T01:12:42;10.60;99.90
36548;DHT22;22551;52.206;4.856;2023-03-19T01:17:44;10.60;99.90
36548;DHT22;22551;52.206;4.856;2023-03-19T01:22:47;10.60;99.90
36548;DHT22;22551;52.206;4.856;2023-03-19T01:27:51;10.50;99.90
36548;DHT22;22551;52.206;4.856;2023-03-19T01:32:53;10.50;99.90
36548;DHT22;22551;52.206;4.856;2023-03-19T01:37:56;10.50;99.90
36548;DHT22;22551;52.206;4.856;2023-03-19T01:43:13;10.50;99.90
36548;DHT22;22551;52.206;4.856;2023-03-19T01:48:26;10.50;99.90
36548;DHT22;22551;52.206;4.856;2023-03-19T01:53:32;10.40;99.90
36548;DHT22;22551;52.206;4.856;2023-03-19T01:58:37;10.40;99.90
36548;DHT22;22551;52.206;4.856;2023-03-19T02:03:40;10.40;99.90
36548;DHT22;22551;52.206;4.856;2023-03-19T02:08:43;10.30;99.90
36548;DHT22;22551;52.206;4.856;2023-03-19T02:13:47;10.20;99.90
36548;DHT22;22551;52.206;4.856;2023-03-19T02:18:49;10.20;99.90
36548;DHT22;22551;52.206;4.856;2023-03-19T02:23:56;10.10;99.90
36548;DHT22;22551;52.206;4.856;2023-03-19T02:29:04;9.90;99.90
36548;DHT22;22551;52.206;4.856;2023-03-19T02:34:35;9.70;99.90
36548;DHT22;22551;52.206;4.856;2023-03-19T02:39:47;9.60;99.90
36548;DHT22;22551;52.206;4.856;2023-03-19T02:44:51;9.40;99.90
36548;DHT22;22551;52.206;4.856;2023-03-19T02:49:55;9.30;99.90
36548;DHT22;22551;52.206;4.856;2023-03-19T02:54:57;9.10;99.90
36548;DHT22;22551;52.206;4.856;2023-03-19T02:59:59;9.00;99.90
36548;DHT22;22551;52.206;4.856;2023-03-19T03:05:03;8.90;99.90
36548;DHT22;22551;52.206;4.856;2023-03-19T03:10:06;8.80;99.90
36548;DHT22;22551;52.206;4.856;2023-03-19T03:15:09;8.70;99.90
36548;DHT22;22551;52.206;4.856;2023-03-19T03:20:14;8.60;99.90
36548;DHT22;22551;52.206;4.856;2023-03-19T03:25:17;8.60;99.90
36548;DHT22;22551;52.206;4.856;2023-03-19T03:30:20;8.50;99.90
36548;DHT22;22551;52.206;4.856;2023-03-19T03:35:24;8.40;99.90
36548;DHT22;22551;52.206;4.856;2023-03-19T03:40:26;8.40;99.90
36548;DHT22;22551;52.206;4.856;2023-03-19T03:45:29;8.30;99.90
36548;DHT22;22551;52.206;4.856;2023-03-19T03:50:34;8.20;99.90
36548;DHT22;22551;52.206;4.856;2023-03-19T03:55:37;8.30;99.90
36548;DHT22;22551;52.206;4.856;2023-03-19T04:00:39;8.40;99.90
36548;DHT22;22551;52.206;4.856;2023-03-19T04:05:43;8.50;99.90
36548;DHT22;22551;52.206;4.856;2023-03-19T04:10:45;8.50;99.90
36548;DHT22;22551;52.206;4.856;2023-03-19T04:15:47;8.50;99.90
36548;DHT22;22551;52.206;4.856;2023-03-19T04:20:51;8.60;99.90
36548;DHT22;22551;52.206;4.856;2023-03-19T04:25:57;8.70;99.90
36548;DHT22;22551;52.206;4.856;2023-03-19T04:31:00;8.70;99.90
36548;DHT22;22551;52.206;4.856;2023-03-19T04:36:04;8.70;99.90
36548;DHT22;22551;52.206;4.856;2023-03-19T04:41:06;8.60;99.90
36548;DHT22;22551;52.206;4.856;2023-03-19T04:46:09;8.60;99.90
36548;DHT22;22551;52.206;4.856;2023-03-19T04:51:12;8.60;99.90
36548;DHT22;22551;52.206;4.856;2023-03-19T04:56:14;8.70;99.90
36548;DHT22;22551;52.206;4.856;2023-03-19T05:01:17;8.70;99.90
36548;DHT22;22551;52.206;4.856;2023-03-19T05:06:20;8.70;99.90
36548;DHT22;22551;52.206;4.856;2023-03-19T05:11:24;8.80;99.90
36548;DHT22;22551;52.206;4.856;2023-03-19T05:16:26;8.70;99.90
36548;DHT22;22551;52.206;4.856;2023-03-19T05:21:30;8.80;99.90
36548;DHT22;22551;52.206;4.856;2023-03-19T05:26:32;8.80;99.90
36548;DHT22;22551;52.206;4.856;2023-03-19T05:31:34;8.80;99.90
36548;DHT22;22551;52.206;4.856;2023-03-19T05:36:37;8.80;99.90
36548;DHT22;22551;52.206;4.856;2023-03-19T05:41:40;8.80;99.90
36548;DHT22;22551;52.206;4.856;2023-03-19T05:46:42;8.80;99.90
36548;DHT22;22551;52.206;4.856;2023-03-19T05:51:46;8.80;99.90
36548;DHT22;22551;52.206;4.856;2023-03-19T05:56:48;8.70;99.90
36548;DHT22;22551;52.206;4.856;2023-03-19T06:01:50;8.80;99.90
36548;DHT22;22551;52.206;4.856;2023-03-19T06:06:53;8.70;99.90
36548;DHT22;22551;52.206;4.856;2023-03-19T06:11:55;8.70;99.90
36548;DHT22;22551;52.206;4.856;2023-03-19T06:16:58;8.70;99.90
36548;DHT22;22551;52.206;4.856;2023-03-19T06:22:01;8.70;99.90
36548;DHT22;22551;52.206;4.856;2023-03-19T06:27:04;8.70;99.90
36548;DHT22;22551;52.206;4.856;2023-03-19T06:32:06;8.80;99.90
36548;DHT22;22551;52.206;4.856;2023-03-19T06:37:11;8.80;99.90
36548;DHT22;22551;52.206;4.856;2023-03-19T06:42:13;8.80;99.90
36548;DHT22;22551;52.206;4.856;2023-03-19T06:47:15;8.60;99.90
36548;DHT22;22551;52.206;4.856;2023-03-19T06:52:19;8.60;99.90
36548;DHT22;22551;52.206;4.856;2023-03-19T06:57:21;8.60;99.90
36548;DHT22;22551;52.206;4.856;2023-03-19T07:02:24;8.60;99.90
36548;DHT22;22551;52.206;4.856;2023-03-19T07:07:28;8.60;99.90
36548;DHT22;22551;52.206;4.856;2023-03-19T07:12:31;8.60;99.90
36548;DHT22;22551;52.206;4.856;2023-03-19T07:17:33;8.60;99.90
36548;DHT22;22551;52.206;4.856;2023-03-19T07:22:39;8.70;99.90
36548;DHT22;22551;52.206;4.856;2023-03-19T07:27:41;8.70;99.90
36548;DHT22;22551;52.206;4.856;2023-03-19T07:32:43;8.80;99.90
36548;DHT22;22551;52.206;4.856;2023-03-19T07:37:47;8.80;99.90
36548;DHT22;22551;52.206;4.856;2023-03-19T07:42:49;8.80;99.90
36548;DHT22;22551;52.206;4.856;2023-03-19T07:47:51;9.10;99.90
36548;DHT22;22551;52.206;4.856;2023-03-19T07:52:55;9.20;99.90
36548;DHT22;22551;52.206;4.856;2023-03-19T07:57:57;9.30;99.90
36548;DHT22;22551;52.206;4.856;2023-03-19T08:03:00;9.30;99.90
36548;DHT22;22551;52.206;4.856;2023-03-19T08:08:04;9.40;99.90
36548;DHT22;22551;52.206;4.856;2023-03-19T08:13:07;9.40;99.90
36548;DHT22;22551;52.206;4.856;2023-03-19T08:18:09;9.50;99.90
36548;DHT22;22551;52.206;4.856;2023-03-19T08:23:14;9.50;99.90
36548;DHT22;22551;52.206;4.856;2023-03-19T08:28:17;9.60;99.90
36548;DHT22;22551;52.206;4.856;2023-03-19T08:33:19;9.60;99.90
36548;DHT22;22551;52.206;4.856;2023-03-19T08:38:23;9.70;99.90
36548;DHT22;22551;52.206;4.856;2023-03-19T08:43:25;9.80;99.90
36548;DHT22;22551;52.206;4.856;2023-03-19T08:48:27;9.90;99.90
36548;DHT22;22551;52.206;4.856;2023-03-19T08:53:32;9.80;99.90
36548;DHT22;22551;52.206;4.856;2023-03-19T08:58:41;9.90;99.90
36548;DHT22;22551;52.206;4.856;2023-03-19T09:03:45;9.90;99.90
36548;DHT22;22551;52.206;4.856;2023-03-19T09:08:49;9.90;99.90
36548;DHT22;22551;52.206;4.856;2023-03-19T09:13:51;10.00;99.90
36548;DHT22;22551;52.206;4.856;2023-03-19T09:18:54;10.00;99.90
36548;DHT22;22551;52.206;4.856;2023-03-19T09:23:57;10.00;99.90
36548;DHT22;22551;52.206;4.856;2023-03-19T09:29:00;10.00;99.90
36548;DHT22;22551;52.206;4.856;2023-03-19T09:34:03;10.30;99.90
36548;DHT22;22551;52.206;4.856;2023-03-19T09:39:07;10.30;99.90
36548;DHT22;22551;52.206;4.856;2023-03-19T09:44:15;10.30;99.90
36548;DHT22;22551;52.206;4.856;2023-03-19T09:49:42;10.50;99.90
36548;DHT22;22551;52.206;4.856;2023-03-19T09:54:49;10.70;99.90
36548;DHT22;22551;52.206;4.856;2023-03-19T09:59:53;10.90;99.90
36548;DHT22;22551;52.206;4.856;2023-03-19T10:05:02;10.90;99.90
36548;DHT22;22551;52.206;4.856;2023-03-19T10:10:44;11.00;99.90
36548;DHT22;22551;52.206;4.856;2023-03-19T10:15:53;11.00;99.90
36548;DHT22;22551;52.206;4.856;2023-03-19T10:21:22;11.10;99.90
36548;DHT22;22551;52.206;4.856;2023-03-19T10:26:31;11.10;99.90
36548;DHT22;22551;52.206;4.856;2023-03-19T10:31:55;11.10;99.90
36548;DHT22;22551;52.206;4.856;2023-03-19T10:37:11;11.20;99.90
36548;DHT22;22551;52.206;4.856;2023-03-19T10:42:34;11.20;99.90
36548;DHT22;22551;52.206;4.856;2023-03-19T10:47:42;11.30;99.90
36548;DHT22;22551;52.206;4.856;2023-03-19T10:53:03;11.30;99.90
36548;DHT22;22551;52.206;4.856;2023-03-19T10:58:17;11.40;99.90
36548;DHT22;22551;52.206;4.856;2023-03-19T11:03:29;11.40;99.90
36548;DHT22;22551;52.206;4.856;2023-03-19T11:08:34;11.30;99.90
36548;DHT22;22551;52.206;4.856;2023-03-19T11:13:40;11.40;99.90
36548;DHT22;22551;52.206;4.856;2023-03-19T11:18:47;11.40;99.90
36548;DHT22;22551;52.206;4.856;2023-03-19T11:23:52;11.50;99.90
36548;DHT22;22551;52.206;4.856;2023-03-19T11:29:04;11.60;99.90
36548;DHT22;22551;52.206;4.856;2023-03-19T11:34:22;11.60;99.90
36548;DHT22;22551;52.206;4.856;2023-03-19T11:39:45;11.50;99.90
36548;DHT22;22551;52.206;4.856;2023-03-19T11:50:37;11.50;99.90
36548;DHT22;22551;52.206;4.856;2023-03-19T11:55:48;11.30;99.90
36548;DHT22;22551;52.206;4.856;2023-03-19T12:00:58;11.30;99.90
36548;DHT22;22551;52.206;4.856;2023-03-19T12:06:07;11.20;99.90
36548;DHT22;22551;52.206;4.856;2023-03-19T12:11:22;11.20;99.90
36548;DHT22;22551;52.206;4.856;2023-03-19T12:16:34;11.40;99.90
36548;DHT22;22551;52.206;4.856;2023-03-19T12:21:56;11.50;99.90
36548;DHT22;22551;52.206;4.856;2023-03-19T12:27:12;11.50;99.90
36548;DHT22;22551;52.206;4.856;2023-03-19T12:32:39;11.40;99.90
36548;DHT22;22551;52.206;4.856;2023-03-19T12:37:57;11.50;99.90
36548;DHT22;22551;52.206;4.856;2023-03-19T12:43:16;11.40;99.90
36548;DHT22;22551;52.206;4.856;2023-03-19T12:48:24;11.60;99.90
36548;DHT22;22551;52.206;4.856;2023-03-19T12:53:39;11.70;99.90
36548;DHT22;22551;52.206;4.856;2023-03-19T12:58:52;12.10;99.90
36548;DHT22;22551;52.206;4.856;2023-03-19T13:04:07;12.50;99.90
36548;DHT22;22551;52.206;4.856;2023-03-19T13:09:23;12.60;99.90
36548;DHT22;22551;52.206;4.856;2023-03-19T13:14:33;12.70;99.90
36548;DHT22;22551;52.206;4.856;2023-03-19T13:19:43;12.80;99.90
36548;DHT22;22551;52.206;4.856;2023-03-19T13:24:53;13.00;99.90
36548;DHT22;22551;52.206;4.856;2023-03-19T13:30:06;13.10;99.90
36548;DHT22;22551;52.206;4.856;2023-03-19T13:35:27;13.20;99.90
36548;DHT22;22551;52.206;4.856;2023-03-19T13:40:43;13.30;99.90
36548;DHT22;22551;52.206;4.856;2023-03-19T13:45:52;13.40;99.90
36548;DHT22;22551;52.206;4.856;2023-03-19T13:51:01;13.50;99.90
36548;DHT22;22551;52.206;4.856;2023-03-19T13:56:10;13.40;99.90
36548;DHT22;22551;52.206;4.856;2023-03-19T14:01:39;13.30;99.90
36548;DHT22;22551;52.206;4.856;2023-03-19T14:06:48;13.10;99.90
36548;DHT22;22551;52.206;4.856;2023-03-19T14:11:53;12.90;99.90
36548;DHT22;22551;52.206;4.856;2023-03-19T14:16:56;12.80;99.90
36548;DHT22;22551;52.206;4.856;2023-03-19T14:22:08;12.50;99.90
36548;DHT22;22551;52.206;4.856;2023-03-19T14:27:17;12.60;99.90
36548;DHT22;22551;52.206;4.856;2023-03-19T14:32:30;12.40;99.90
36548;DHT22;22551;52.206;4.856;2023-03-19T14:38:09;12.40;99.90
36548;DHT22;22551;52.206;4.856;2023-03-19T14:43:38;12.30;99.90
36548;DHT22;22551;52.206;4.856;2023-03-19T14:49:26;12.40;99.90
36548;DHT22;22551;52.206;4.856;2023-03-19T14:54:46;12.40;99.90
36548;DHT22;22551;52.206;4.856;2023-03-19T14:59:53;12.20;99.90
36548;DHT22;22551;52.206;4.856;2023-03-19T15:04:56;11.50;99.90
36548;DHT22;22551;52.206;4.856;2023-03-19T15:10:00;11.30;99.90
36548;DHT22;22551;52.206;4.856;2023-03-19T15:20:36;10.90;99.90
36548;DHT22;22551;52.206;4.856;2023-03-19T15:25:44;10.90;99.90
36548;DHT22;22551;52.206;4.856;2023-03-19T15:30:57;10.90;99.90
36548;DHT22;22551;52.206;4.856;2023-03-19T15:36:04;10.80;99.90
36548;DHT22;22551;52.206;4.856;2023-03-19T15:41:12;10.70;99.90
36548;DHT22;22551;52.206;4.856;2023-03-19T15:46:21;10.70;99.90
36548;DHT22;22551;52.206;4.856;2023-03-19T15:51:25;10.70;99.90
36548;DHT22;22551;52.206;4.856;2023-03-19T15:56:28;10.60;99.90
36548;DHT22;22551;52.206;4.856;2023-03-19T16:01:33;10.60;99.90
36548;DHT22;22551;52.206;4.856;2023-03-19T16:06:36;10.60;99.90
36548;DHT22;22551;52.206;4.856;2023-03-19T16:11:42;10.70;99.90
36548;DHT22;22551;52.206;4.856;2023-03-19T16:16:52;10.70;99.90
36548;DHT22;22551;52.206;4.856;2023-03-19T16:22:02;10.60;99.90
36548;DHT22;22551;52.206;4.856;2023-03-19T16:27:12;10.50;99.90
36548;DHT22;22551;52.206;4.856;2023-03-19T16:32:20;10.50;99.90
36548;DHT22;22551;52.206;4.856;2023-03-19T16:37:33;10.40;99.90
36548;DHT22;22551;52.206;4.856;2023-03-19T16:42:42;10.50;99.90
36548;DHT22;22551;52.206;4.856;2023-03-19T16:47:50;10.50;99.90
36548;DHT22;22551;52.206;4.856;2023-03-19T16:52:53;10.40;99.90
36548;DHT22;22551;52.206;4.856;2023-03-19T16:57:58;10.40;99.90
36548;DHT22;22551;52.206;4.856;2023-03-19T17:03:05;10.30;99.90
36548;DHT22;22551;52.206;4.856;2023-03-19T17:08:12;10.20;99.90
36548;DHT22;22551;52.206;4.856;2023-03-19T17:13:17;10.10;99.90
36548;DHT22;22551;52.206;4.856;2023-03-19T17:18:26;10.10;99.90
36548;DHT22;22551;52.206;4.856;2023-03-19T17:23:31;10.10;99.90
36548;DHT22;22551;52.206;4.856;2023-03-19T17:28:34;10.00;99.90
36548;DHT22;22551;52.206;4.856;2023-03-19T17:33:40;10.00;99.90
36548;DHT22;22551;52.206;4.856;2023-03-19T17:38:43;9.90;99.90
36548;DHT22;22551;52.206;4.856;2023-03-19T17:43:46;9.80;99.90
36548;DHT22;22551;52.206;4.856;2023-03-19T17:48:51;9.80;99.90
36548;DHT22;22551;52.206;4.856;2023-03-19T17:53:54;9.70;99.90
36548;DHT22;22551;52.206;4.856;2023-03-19T17:58:57;9.70;99.90
36548;DHT22;22551;52.206;4.856;2023-03-19T18:04:00;9.50;99.90
36548;DHT22;22551;52.206;4.856;2023-03-19T18:09:03;9.40;99.90
36548;DHT22;22551;52.206;4.856;2023-03-19T18:14:05;9.30;99.90
36548;DHT22;22551;52.206;4.856;2023-03-19T18:19:17;9.10;99.90
36548;DHT22;22551;52.206;4.856;2023-03-19T18:24:21;9.10;99.90
36548;DHT22;22551;52.206;4.856;2023-03-19T18:29:23;9.10;99.90
36548;DHT22;22551;52.206;4.856;2023-03-19T18:34:27;9.00;99.90
36548;DHT22;22551;52.206;4.856;2023-03-19T18:39:30;9.00;99.90
36548;DHT22;22551;52.206;4.856;2023-03-19T18:44:37;9.00;99.90
36548;DHT22;22551;52.206;4.856;2023-03-19T18:49:41;8.90;99.90
36548;DHT22;22551;52.206;4.856;2023-03-19T18:54:46;9.00;99.90
36548;DHT22;22551;52.206;4.856;2023-03-19T18:59:48;9.00;99.90
36548;DHT22;22551;52.206;4.856;2023-03-19T19:04:52;8.80;99.90
36548;DHT22;22551;52.206;4.856;2023-03-19T19:09:54;8.70;99.90
36548;DHT22;22551;52.206;4.856;2023-03-19T19:14:56;8.60;99.90
36548;DHT22;22551;52.206;4.856;2023-03-19T19:20:00;8.60;99.90
36548;DHT22;22551;52.206;4.856;2023-03-19T19:25:03;8.60;99.90
36548;DHT22;22551;52.206;4.856;2023-03-19T19:30:13;8.70;99.90
36548;DHT22;22551;52.206;4.856;2023-03-19T19:35:20;8.60;99.90
36548;DHT22;22551;52.206;4.856;2023-03-19T19:40:26;8.60;99.90
36548;DHT22;22551;52.206;4.856;2023-03-19T19:45:32;8.60;99.90
36548;DHT22;22551;52.206;4.856;2023-03-19T19:50:38;8.60;99.90
36548;DHT22;22551;52.206;4.856;2023-03-19T19:55:41;8.60;99.90
36548;DHT22;22551;52.206;4.856;2023-03-19T20:00:43;8.60;99.90
36548;DHT22;22551;52.206;4.856;2023-03-19T20:05:47;8.60;99.90
36548;DHT22;22551;52.206;4.856;2023-03-19T20:10:50;8.50;99.90
36548;DHT22;22551;52.206;4.856;2023-03-19T20:15:53;8.60;99.90
36548;DHT22;22551;52.206;4.856;2023-03-19T20:20:59;8.40;99.90
36548;DHT22;22551;52.206;4.856;2023-03-19T20:26:01;8.50;99.90
36548;DHT22;22551;52.206;4.856;2023-03-19T20:31:04;8.40;99.90
36548;DHT22;22551;52.206;4.856;2023-03-19T20:36:12;8.50;99.90
36548;DHT22;22551;52.206;4.856;2023-03-19T20:41:18;8.50;99.90
36548;DHT22;22551;52.206;4.856;2023-03-19T20:46:22;8.50;99.90
36548;DHT22;22551;52.206;4.856;2023-03-19T20:51:25;8.50;99.90
36548;DHT22;22551;52.206;4.856;2023-03-19T20:56:31;8.50;99.90
36548;DHT22;22551;52.206;4.856;2023-03-19T21:01:36;8.60;99.90
36548;DHT22;22551;52.206;4.856;2023-03-19T21:06:40;8.50;99.90
36548;DHT22;22551;52.206;4.856;2023-03-19T21:11:42;8.40;99.90
36548;DHT22;22551;52.206;4.856;2023-03-19T21:16:45;8.40;99.90
36548;DHT22;22551;52.206;4.856;2023-03-19T21:21:49;8.40;99.90
36548;DHT22;22551;52.206;4.856;2023-03-19T21:26:51;8.40;99.90
36548;DHT22;22551;52.206;4.856;2023-03-19T21:31:56;8.40;99.90
36548;DHT22;22551;52.206;4.856;2023-03-19T21:37:00;8.40;99.90
36548;DHT22;22551;52.206;4.856;2023-03-19T21:42:04;8.40;99.90
36548;DHT22;22551;52.206;4.856;2023-03-19T21:47:09;8.40;99.90
36548;DHT22;22551;52.206;4.856;2023-03-19T21:52:14;8.40;99.90
36548;DHT22;22551;52.206;4.856;2023-03-19T21:57:19;8.40;99.90
36548;DHT22;22551;52.206;4.856;2023-03-19T22:02:37;8.40;99.90
36548;DHT22;22551;52.206;4.856;2023-03-19T22:07:42;8.40;99.90
36548;DHT22;22551;52.206;4.856;2023-03-19T22:12:45;8.40;99.90
36548;DHT22;22551;52.206;4.856;2023-03-19T22:17:47;8.40;99.90
36548;DHT22;22551;52.206;4.856;2023-03-19T22:22:52;8.30;99.90
36548;DHT22;22551;52.206;4.856;2023-03-19T22:27:55;8.30;99.90
36548;DHT22;22551;52.206;4.856;2023-03-19T22:32:58;8.30;99.90
36548;DHT22;22551;52.206;4.856;2023-03-19T22:38:02;8.30;99.90
36548;DHT22;22551;52.206;4.856;2023-03-19T22:43:14;8.30;99.90
36548;DHT22;22551;52.206;4.856;2023-03-19T22:48:18;8.30;99.90
36548;DHT22;22551;52.206;4.856;2023-03-19T22:53:25;8.30;99.90
36548;DHT22;22551;52.206;4.856;2023-03-19T22:58:29;8.40;99.90
36548;DHT22;22551;52.206;4.856;2023-03-19T23:03:31;8.30;99.90
36548;DHT22;22551;52.206;4.856;2023-03-19T23:08:36;8.40;99.90
36548;DHT22;22551;52.206;4.856;2023-03-19T23:13:38;8.30;99.90
36548;DHT22;22551;52.206;4.856;2023-03-19T23:18:41;8.30;99.90
36548;DHT22;22551;52.206;4.856;2023-03-19T23:23:45;8.30;99.90
36548;DHT22;22551;52.206;4.856;2023-03-19T23:28:47;8.30;99.90
36548;DHT22;22551;52.206;4.856;2023-03-19T23:33:50;8.30;99.90
36548;DHT22;22551;52.206;4.856;2023-03-19T23:38:55;8.30;99.90
36548;DHT22;22551;52.206;4.856;2023-03-19T23:44:00;8.30;99.90
36548;DHT22;22551;52.206;4.856;2023-03-19T23:49:03;8.30;99.90
36548;DHT22;22551;52.206;4.856;2023-03-19T23:54:25;8.30;99.90
36548;DHT22;22551;52.206;4.856;2023-03-19T23:59:33;8.30;99.90
